createdAt,value
2019-04-27T00:01:55.561Z,2.60
2019-04-27T00:04:55.845Z,2.30
2019-04-27T00:07:34.692Z,2.33
2019-04-27T00:10:26.943Z,2.47
2019-04-27T00:12:50.945Z,2.60
2019-04-27T00:15:31.175Z,2.30
2019-04-27T00:18:15.598Z,2.20
2019-04-27T00:20:54.484Z,2.40
2019-04-27T00:23:23.702Z,2.37
2019-04-27T00:25:52.724Z,3.20
2019-04-27T00:28:20.414Z,2.73
2019-04-27T00:30:48.294Z,2.97
2019-04-27T00:33:15.711Z,2.60
2019-04-27T00:35:50.313Z,2.50
2019-04-27T00:38:26.892Z,2.20
2019-04-27T00:40:59.207Z,2.30
2019-04-27T00:43:26.553Z,2.47
2019-04-27T00:45:54.492Z,2.40
2019-04-27T00:48:23.347Z,2.40
2019-04-27T00:50:50.793Z,2.53
2019-04-27T00:53:37.665Z,2.40
2019-04-27T00:56:18.401Z,2.43
2019-04-27T00:59:04.648Z,2.10
2019-04-27T01:01:36.152Z,2.50
2019-04-27T01:04:13.585Z,2.33
2019-04-27T01:06:41.098Z,2.73
2019-04-27T01:09:10.163Z,2.40
2019-04-27T01:11:37.576Z,2.10
2019-04-27T01:14:05.121Z,2.30
2019-04-27T01:16:32.577Z,2.07
2019-04-27T01:19:00.311Z,2.30
2019-04-27T01:21:47.233Z,2.20
2019-04-27T01:24:15.264Z,2.37
2019-04-27T01:27:08.764Z,2.57
2019-04-27T01:29:36.624Z,2.40
2019-04-27T01:32:05.531Z,2.20
2019-04-27T01:34:33.116Z,2.50
2019-04-27T01:37:00.543Z,2.30
2019-04-27T01:39:48.580Z,2.23
2019-04-27T01:42:16.780Z,1.70
2019-04-27T01:44:44.501Z,2.20
2019-04-27T01:47:31.468Z,1.90
2019-04-27T01:49:58.647Z,1.77
2019-04-27T01:52:29.203Z,1.70
2019-04-27T01:54:59.476Z,1.90
2019-04-27T01:57:27.164Z,1.90
2019-04-27T01:59:54.940Z,2.50
2019-04-27T02:02:49.464Z,1.70
2019-04-27T02:05:36.456Z,1.90
2019-04-27T02:08:07.457Z,2.20
2019-04-27T02:10:34.774Z,1.90
2019-04-27T02:13:02.419Z,2.33
2019-04-27T02:15:30.227Z,2.23
2019-04-27T02:17:59.593Z,2.40
2019-04-27T02:20:28.274Z,2.13
2019-04-27T02:22:55.791Z,2.30
2019-04-27T02:25:23.770Z,2.67
2019-04-27T02:27:56.669Z,2.40
2019-04-27T02:30:43.722Z,2.10
2019-04-27T02:33:34.030Z,2.20
2019-04-27T02:36:03.799Z,2.20
2019-04-27T02:38:31.367Z,2.23
2019-04-27T02:41:00.343Z,2.30
2019-04-27T02:43:56.327Z,3.00
2019-04-27T02:46:23.840Z,2.23
2019-04-27T02:48:59.740Z,2.13
2019-04-27T02:51:29.992Z,1.93
2019-04-27T02:54:00.149Z,2.27
2019-04-27T02:56:29.897Z,2.00
2019-04-27T02:58:59.535Z,2.10
2019-04-27T03:01:30.797Z,2.07
2019-04-27T03:04:00.278Z,2.43
2019-04-27T03:06:30.032Z,1.87
2019-04-27T03:09:00.013Z,2.00
2019-04-27T03:11:31.257Z,2.60
2019-04-27T03:14:56.378Z,1.90
2019-04-27T03:18:02.235Z,2.20
2019-04-27T03:21:07.512Z,2.00
2019-04-27T03:23:34.933Z,2.10
2019-04-27T03:26:14.197Z,2.23
2019-04-27T03:28:42.026Z,2.53
2019-04-27T03:31:32.671Z,2.60
2019-04-27T03:34:04.829Z,2.80
2019-04-27T03:36:31.741Z,2.40
2019-04-27T03:38:59.893Z,2.43
2019-04-27T03:41:29.197Z,2.63
2019-04-27T03:43:56.105Z,2.67
2019-04-27T03:46:23.378Z,2.80
2019-04-27T03:49:27.321Z,2.93
2019-04-27T03:52:05.344Z,2.60
2019-04-27T03:54:41.555Z,2.40
2019-04-27T03:57:33.018Z,2.60
2019-04-27T04:00:06.258Z,2.80
2019-04-27T04:02:33.637Z,2.57
2019-04-27T04:05:01.460Z,2.70
2019-04-27T04:07:29.957Z,2.87
2019-04-27T04:09:57.271Z,3.13
2019-04-27T04:12:44.232Z,3.37
2019-04-27T04:15:43.954Z,2.73
2019-04-27T04:18:20.366Z,3.57
2019-04-27T04:20:50.377Z,3.70
2019-04-27T04:23:17.071Z,3.70
2019-04-27T04:26:04.210Z,4.40
2019-04-27T04:28:31.807Z,3.90
2019-04-27T04:31:00.527Z,3.80
2019-04-27T04:33:30.242Z,4.33
2019-04-27T04:35:59.759Z,4.97
2019-04-27T04:38:50.487Z,5.00
2019-04-27T04:42:03.223Z,4.70
2019-04-27T04:45:15.356Z,4.73
2019-04-27T04:48:09.629Z,5.23
2019-04-27T04:50:40.078Z,5.80
2019-04-27T04:53:21.118Z,5.97
2019-04-27T04:56:10.494Z,5.33
2019-04-27T04:58:39.255Z,5.37
2019-04-27T05:01:06.681Z,4.87
2019-04-27T05:03:39.943Z,4.80
2019-04-27T05:06:15.760Z,5.17
2019-04-27T05:08:43.466Z,4.60
2019-04-27T05:11:33.961Z,4.70
2019-04-27T05:14:05.967Z,5.50
2019-04-27T05:16:50.868Z,5.47
2019-04-27T05:19:18.922Z,5.20
2019-04-27T05:25:05.521Z,4.73
2019-04-27T05:27:36.049Z,5.37
2019-04-27T05:30:25.295Z,4.90
2019-04-27T05:33:06.142Z,4.87
2019-04-27T05:35:29.760Z,4.97
2019-04-27T05:38:02.463Z,4.70
2019-04-27T05:40:35.632Z,3.80
2019-04-27T05:43:08.965Z,3.80
2019-04-27T05:46:41.587Z,4.00
2019-04-27T05:49:27.356Z,3.77
2019-04-27T05:51:55.028Z,4.60
2019-04-27T05:54:23.038Z,3.73
2019-04-27T05:56:50.463Z,3.40
2019-04-27T05:59:21.330Z,3.30
2019-04-27T06:01:49.409Z,3.37
2019-04-27T06:04:19.086Z,3.30
2019-04-27T06:06:47.035Z,2.77
2019-04-27T06:09:14.819Z,2.50
2019-04-27T06:11:42.581Z,2.07
2019-04-27T06:14:19.488Z,2.23
2019-04-27T06:16:47.215Z,2.13
2019-04-27T06:19:16.210Z,1.90
2019-04-27T06:21:50.006Z,2.30
2019-04-27T06:24:23.199Z,2.60
2019-04-27T06:26:50.760Z,1.63
2019-04-27T06:29:19.545Z,2.07
2019-04-27T06:31:49.361Z,1.97
2019-04-27T06:34:17.297Z,1.40
2019-04-27T06:40:01.008Z,1.90
2019-04-27T06:42:29.815Z,1.77
2019-04-27T06:45:01.611Z,1.50
2019-04-27T06:47:29.620Z,2.03
2019-04-27T06:49:58.713Z,1.93
2019-04-27T06:52:26.550Z,2.00
2019-04-27T06:54:54.622Z,1.67
2019-04-27T06:57:41.949Z,2.90
2019-04-27T07:00:25.210Z,2.73
2019-04-27T07:02:55.213Z,1.93
2019-04-27T07:05:22.563Z,2.13
2019-04-27T07:08:12.341Z,2.53
2019-04-27T07:10:45.113Z,1.83
2019-04-27T07:13:12.579Z,2.10
2019-04-27T07:15:40.535Z,2.20
2019-04-27T07:18:28.582Z,2.57
2019-04-27T07:20:58.521Z,3.30
2019-04-27T07:23:26.179Z,2.70
2019-04-27T07:26:16.005Z,3.13
2019-04-27T07:31:29.529Z,2.73
2019-04-27T07:33:57.300Z,2.77
2019-04-27T07:36:26.311Z,3.30
2019-04-27T07:38:53.804Z,2.27
2019-04-27T07:41:33.565Z,2.73
2019-04-27T07:44:21.551Z,3.00
2019-04-27T07:50:14.285Z,2.90
2019-04-27T07:52:42.717Z,2.33
2019-04-27T07:55:12.940Z,2.90
2019-04-27T07:57:40.596Z,1.93
2019-04-27T08:00:09.375Z,2.80
2019-04-27T08:02:38.881Z,2.47
2019-04-27T08:05:26.050Z,2.37
2019-04-27T08:07:53.845Z,3.50
2019-04-27T08:10:24.804Z,2.90
2019-04-27T08:13:07.176Z,2.57
2019-04-27T08:15:34.768Z,2.57
2019-04-27T08:18:02.314Z,2.33
2019-04-27T08:20:29.807Z,2.10
2019-04-27T08:23:06.296Z,2.20
2019-04-27T08:25:53.431Z,2.33
2019-04-27T08:28:48.612Z,2.63
2019-04-27T08:31:21.063Z,2.53
2019-04-27T08:34:29.497Z,3.03
2019-04-27T08:36:58.452Z,3.03
2019-04-27T08:39:26.219Z,4.33
2019-04-27T08:41:53.614Z,3.10
2019-04-27T08:44:20.995Z,3.20
2019-04-27T08:46:49.557Z,4.43
2019-04-27T08:49:18.247Z,3.47
2019-04-27T08:51:57.145Z,3.43
2019-04-27T08:54:19.744Z,3.37
2019-04-27T08:56:47.203Z,3.73
2019-04-27T08:59:14.785Z,4.60
2019-04-27T09:01:42.328Z,3.03
2019-04-27T09:04:29.413Z,3.70
2019-04-27T09:07:41.146Z,3.53
2019-04-27T09:10:14.444Z,3.30
2019-04-27T09:13:08.859Z,3.20
2019-04-27T09:15:41.447Z,3.43
2019-04-27T09:18:09.134Z,3.37
2019-04-27T09:20:45.920Z,2.37
2019-04-27T09:23:13.764Z,2.13
2019-04-27T09:26:00.383Z,2.23
2019-04-27T09:28:29.311Z,2.60
2019-04-27T09:30:58.249Z,2.37
2019-04-27T09:33:26.143Z,2.50
2019-04-27T09:35:53.886Z,2.10
2019-04-27T09:38:21.038Z,1.90
2019-04-27T09:40:49.210Z,3.47
2019-04-27T09:43:17.009Z,2.70
2019-04-27T09:45:44.695Z,2.77
2019-04-27T09:48:33.430Z,2.63
2019-04-27T09:51:01.310Z,2.43
2019-04-27T09:53:28.581Z,2.67
2019-04-27T09:55:56.606Z,2.00
2019-04-27T09:58:25.727Z,2.07
2019-04-27T10:00:56.799Z,2.20
2019-04-27T10:03:24.013Z,2.10
2019-04-27T10:05:52.032Z,2.40
2019-04-27T10:08:19.108Z,3.00
2019-04-27T10:10:56.541Z,3.30
2019-04-27T10:13:25.695Z,2.43
2019-04-27T10:15:54.347Z,2.63
2019-04-27T10:18:21.670Z,3.17
2019-04-27T10:20:59.134Z,3.27
2019-04-27T10:23:38.450Z,2.87
2019-04-27T10:26:25.906Z,2.80
2019-04-27T10:28:53.742Z,3.40
2019-04-27T10:31:29.279Z,3.30
2019-04-27T10:33:56.677Z,4.07
2019-04-27T10:36:39.349Z,3.13
2019-04-27T10:39:17.044Z,3.30
2019-04-27T10:41:46.330Z,2.30
2019-04-27T10:44:13.594Z,2.37
2019-04-27T10:46:59.722Z,2.20
2019-04-27T10:49:27.495Z,1.40
2019-04-27T10:51:55.751Z,1.10
2019-04-27T10:54:23.109Z,1.77
2019-04-27T10:56:50.903Z,2.50
2019-04-27T10:59:20.657Z,1.73
2019-04-27T11:01:48.453Z,1.37
2019-04-27T11:04:53.244Z,1.30
2019-04-27T11:07:22.560Z,1.50
2019-04-27T11:09:50.291Z,1.17
2019-04-27T11:12:17.601Z,1.50
2019-04-27T11:14:44.854Z,2.27
2019-04-27T11:17:11.948Z,1.97
2019-04-27T11:19:39.319Z,2.00
2019-04-27T11:22:07.483Z,1.87
2019-04-27T11:24:34.930Z,1.63
2019-04-27T11:27:02.732Z,1.60
2019-04-27T11:29:31.891Z,2.63
2019-04-27T11:31:59.331Z,1.60
2019-04-27T11:34:47.879Z,1.80
2019-04-27T11:37:18.304Z,2.17
2019-04-27T11:39:46.086Z,1.13
2019-04-27T11:42:19.863Z,0.77
2019-04-27T11:44:47.138Z,1.50
2019-04-27T11:47:16.236Z,1.30
2019-04-27T11:49:45.610Z,1.20
2019-04-27T11:52:12.810Z,1.30
2019-04-27T11:54:40.312Z,1.00
2019-04-27T11:57:07.558Z,1.10
2019-04-27T11:59:35.271Z,1.20
2019-04-27T12:02:02.595Z,1.30
2019-04-27T12:04:30.179Z,1.10
2019-04-27T12:06:57.628Z,1.37
2019-04-27T12:09:25.373Z,1.40
2019-04-27T12:11:52.739Z,1.50
2019-04-27T12:14:22.076Z,1.30
2019-04-27T12:16:52.482Z,2.50
2019-04-27T12:19:19.619Z,2.30
2019-04-27T12:21:50.230Z,1.70
2019-04-27T12:24:17.943Z,1.30
2019-04-27T12:26:57.542Z,1.40
2019-04-27T12:29:45.421Z,1.93
2019-04-27T12:32:15.614Z,1.80
2019-04-27T12:34:43.222Z,1.40
2019-04-27T12:37:10.512Z,1.50
2019-04-27T12:40:00.596Z,1.90
2019-04-27T12:42:27.747Z,1.63
2019-04-27T12:45:18.417Z,1.70
2019-04-27T12:47:46.445Z,1.87
2019-04-27T12:50:14.498Z,2.27
2019-04-27T12:52:45.948Z,1.67
2019-04-27T12:56:01.383Z,2.20
2019-04-27T12:58:34.234Z,1.77
2019-04-27T13:01:02.047Z,1.97
2019-04-27T13:03:29.293Z,2.10
2019-04-27T13:05:56.902Z,1.83
2019-04-27T13:08:26.042Z,2.10
2019-04-27T13:10:53.552Z,2.07
2019-04-27T13:13:20.575Z,1.90
2019-04-27T13:16:07.437Z,2.40
2019-04-27T13:18:47.814Z,1.77
2019-04-27T13:21:16.042Z,1.90
2019-04-27T13:24:07.096Z,2.40
2019-04-27T13:26:36.200Z,2.53
2019-04-27T13:29:03.665Z,2.57
2019-04-27T13:31:31.175Z,2.13
2019-04-27T13:33:59.311Z,2.73
2019-04-27T13:36:26.704Z,3.07
2019-04-27T13:38:55.846Z,2.37
2019-04-27T13:41:30.742Z,2.40
2019-04-27T13:44:11.526Z,2.47
2019-04-27T13:46:57.253Z,2.10
2019-04-27T13:49:53.780Z,2.40
2019-04-27T13:52:29.679Z,2.60
2019-04-27T13:54:56.374Z,2.30
2019-04-27T13:57:23.724Z,3.87
2019-04-27T13:59:51.722Z,2.13
2019-04-27T14:02:21.232Z,2.57
2019-04-27T14:04:48.490Z,1.97
2019-04-27T14:07:15.807Z,1.90
2019-04-27T14:09:43.532Z,1.90
2019-04-27T14:12:18.768Z,2.00
2019-04-27T14:14:49.157Z,1.90
2019-04-27T14:17:16.525Z,2.30
2019-04-27T14:19:44.197Z,2.13
2019-04-27T14:22:11.190Z,2.10
2019-04-27T14:24:39.939Z,2.20
2019-04-27T14:27:08.117Z,1.87
2019-04-27T14:29:35.538Z,2.43
2019-04-27T14:32:22.103Z,2.13
2019-04-27T14:34:50.360Z,3.37
2019-04-27T14:37:18.597Z,2.53
2019-04-27T14:40:05.546Z,2.00
2019-04-27T14:42:32.732Z,2.00
2019-04-27T14:45:19.716Z,2.00
2019-04-27T14:47:48.162Z,2.40
2019-04-27T14:50:15.662Z,2.40
2019-04-27T14:52:42.947Z,2.80
2019-04-27T14:55:10.299Z,2.03
2019-04-27T14:57:39.349Z,2.50
2019-04-27T15:00:07.664Z,2.73
2019-04-27T15:02:35.014Z,2.23
2019-04-27T15:05:21.890Z,2.60
2019-04-27T15:10:36.111Z,2.43
2019-04-27T15:13:06.401Z,2.83
2019-04-27T15:15:33.656Z,2.23
2019-04-27T15:18:04.400Z,2.67
2019-04-27T15:20:41.322Z,2.30
2019-04-27T15:23:07.164Z,3.03
2019-04-27T15:25:53.816Z,2.00
2019-04-27T15:28:28.199Z,1.93
2019-04-27T15:31:25.382Z,2.90
2019-04-27T15:34:19.010Z,1.83
2019-04-27T15:37:11.943Z,1.43
2019-04-27T15:40:08.364Z,1.40
2019-04-27T15:42:35.419Z,2.90
2019-04-27T15:45:24.362Z,2.60
2019-04-27T15:47:54.565Z,2.37
2019-04-27T15:50:23.426Z,1.50
2019-04-27T15:52:50.799Z,1.33
2019-04-27T15:55:31.591Z,2.10
2019-04-27T15:57:48.755Z,1.40
2019-04-27T16:00:22.726Z,1.70
2019-04-27T16:02:52.747Z,2.23
2019-04-27T16:05:19.415Z,1.90
2019-04-27T16:07:47.932Z,1.90
2019-04-27T16:10:15.514Z,2.13
2019-04-27T16:12:54.810Z,1.70
2019-04-27T16:15:13.482Z,2.17
2019-04-27T16:17:43.984Z,2.73
2019-04-27T16:20:13.891Z,2.33
2019-04-27T16:22:41.291Z,1.87
2019-04-27T16:27:54.393Z,3.07
2019-04-27T16:30:22.206Z,1.30
2019-04-27T16:33:09.102Z,1.57
2019-04-27T16:35:38.618Z,2.17
2019-04-27T16:38:33.404Z,1.50
2019-04-27T16:41:19.388Z,1.63
2019-04-27T16:43:50.297Z,1.20
2019-04-27T16:46:19.096Z,1.43
2019-04-27T16:48:46.346Z,1.83
2019-04-27T16:51:13.618Z,2.07
2019-04-27T16:53:41.376Z,1.80
2019-04-27T16:56:15.178Z,2.50
2019-04-27T16:58:39.425Z,1.60
2019-04-27T17:01:10.532Z,1.60
2019-04-27T17:03:36.928Z,1.50
2019-04-27T17:06:07.824Z,1.93
2019-04-27T17:08:33.471Z,1.63
2019-04-27T17:11:08.373Z,1.80
2019-04-27T17:13:32.070Z,1.67
2019-04-27T17:16:33.997Z,1.60
2019-04-27T17:19:06.636Z,1.73
2019-04-27T17:21:38.622Z,1.80
2019-04-27T17:24:04.252Z,1.50
2019-04-27T17:26:51.308Z,1.40
2019-04-27T17:29:20.489Z,1.47
2019-04-27T17:31:50.540Z,1.73
2019-04-27T17:34:25.061Z,1.60
2019-04-27T17:36:54.514Z,1.43
2019-04-27T17:39:19.346Z,1.93
2019-04-27T17:41:52.118Z,1.93
2019-04-27T17:44:22.750Z,1.37
2019-04-27T17:46:49.433Z,2.57
2019-04-27T17:49:15.574Z,1.87
2019-04-27T17:51:44.471Z,2.53
2019-04-27T17:54:11.968Z,2.17
2019-04-27T17:56:48.168Z,1.87
2019-04-27T17:59:10.440Z,2.33
2019-04-27T18:01:38.939Z,2.10
2019-04-27T18:04:10.728Z,1.60
2019-04-27T18:06:39.036Z,1.93
2019-04-27T18:09:09.838Z,1.67
2019-04-27T18:11:38.464Z,2.60
2019-04-27T18:14:06.220Z,1.40
2019-04-27T18:16:34.542Z,1.57
2019-04-27T18:19:28.280Z,2.27
2019-04-27T18:22:00.870Z,1.57
2019-04-27T18:24:35.590Z,1.50
2019-04-27T18:27:19.520Z,1.90
2019-04-27T18:29:48.508Z,1.93
2019-04-27T18:32:15.908Z,2.07
2019-04-27T18:35:08.080Z,1.77
2019-04-27T18:37:35.551Z,1.70
2019-04-27T18:40:03.442Z,1.10
2019-04-27T18:42:31.304Z,1.23
2019-04-27T18:45:06.009Z,1.40
2019-04-27T18:47:31.243Z,1.73
2019-04-27T18:50:20.081Z,1.40
2019-04-27T18:53:11.065Z,1.20
2019-04-27T18:55:38.445Z,1.80
2019-04-27T18:58:05.887Z,1.47
2019-04-27T19:00:33.919Z,2.07
2019-04-27T19:03:01.368Z,1.50
2019-04-27T19:05:39.911Z,1.60
2019-04-27T19:07:58.336Z,1.50
2019-04-27T19:10:46.834Z,1.70
2019-04-27T19:13:14.455Z,1.50
2019-04-27T19:15:42.473Z,1.53
2019-04-27T19:18:09.540Z,1.30
2019-04-27T19:20:36.799Z,1.40
2019-04-27T19:23:04.575Z,1.50
2019-04-27T19:26:00.799Z,1.30
2019-04-27T19:28:58.372Z,1.30
2019-04-27T19:31:29.083Z,1.53
2019-04-27T19:34:15.954Z,2.20
2019-04-27T19:36:44.769Z,1.03
2019-04-27T19:39:23.788Z,1.13
2019-04-27T19:42:00.469Z,1.30
2019-04-27T19:44:24.260Z,1.50
2019-04-27T19:46:52.474Z,1.10
2019-04-27T19:49:20.311Z,1.27
2019-04-27T19:51:47.388Z,2.47
2019-04-27T19:54:23.966Z,1.20
2019-04-27T19:56:51.793Z,0.80
2019-04-27T19:59:28.050Z,1.20
2019-04-27T20:02:18.719Z,1.77
2019-04-27T20:05:00.828Z,1.80
2019-04-27T20:10:17.335Z,1.40
2019-04-27T20:12:44.925Z,1.63
2019-04-27T20:15:12.577Z,1.20
2019-04-27T20:17:40.925Z,1.17
2019-04-27T20:20:19.206Z,1.10
2019-04-27T20:22:49.420Z,1.00
2019-04-27T20:25:16.998Z,1.13
2019-04-27T20:27:49.113Z,1.40
2019-04-27T20:30:16.400Z,1.00
2019-04-27T20:32:45.637Z,1.17
2019-04-27T20:35:13.249Z,2.30
2019-04-27T20:37:41.622Z,1.27
2019-04-27T20:40:28.571Z,1.67
2019-04-27T20:42:58.706Z,1.93
2019-04-27T20:45:26.623Z,1.63
2019-04-27T20:47:54.241Z,1.67
2019-04-27T20:50:22.229Z,1.60
2019-04-27T20:52:54.110Z,1.77
2019-04-27T20:55:22.876Z,2.53
2019-04-27T20:58:03.212Z,1.43
2019-04-27T21:00:31.939Z,1.53
2019-04-27T21:03:18.264Z,1.73
2019-04-27T21:06:26.201Z,1.30
2019-04-27T21:08:42.514Z,1.20
2019-04-27T21:11:11.729Z,1.40
2019-04-27T21:13:39.334Z,1.53
2019-04-27T21:16:06.569Z,1.33
2019-04-27T21:18:33.860Z,1.20
2019-04-27T21:21:01.364Z,1.50
2019-04-27T21:23:31.056Z,0.90
2019-04-27T21:25:58.640Z,1.20
2019-04-27T21:28:45.687Z,1.40
2019-04-27T21:31:13.284Z,1.27
2019-04-27T21:33:40.989Z,1.23
2019-04-27T21:36:08.462Z,0.90
2019-04-27T21:38:36.088Z,1.30
2019-04-27T21:41:03.496Z,1.13
2019-04-27T21:43:32.775Z,0.90
2019-04-27T21:46:00.525Z,1.07
2019-04-27T21:48:48.040Z,1.10
2019-04-27T21:51:15.355Z,1.30
2019-04-27T21:54:14.576Z,1.23
2019-04-27T21:56:42.001Z,2.13
2019-04-27T21:59:28.920Z,1.87
2019-04-27T22:01:57.657Z,1.40
2019-04-27T22:04:25.087Z,1.20
2019-04-27T22:07:12.132Z,1.10
2019-04-27T22:09:43.051Z,1.13
2019-04-27T22:12:31.225Z,1.30
2019-04-27T22:14:59.079Z,1.87
2019-04-27T22:17:47.624Z,1.30
2019-04-27T22:20:15.628Z,1.00
2019-04-27T22:22:46.972Z,1.37
2019-04-27T22:25:14.424Z,1.00
2019-04-27T22:27:42.038Z,1.17
2019-04-27T22:30:10.970Z,1.10
2019-04-27T22:32:38.467Z,1.20
2019-04-27T22:35:25.484Z,0.90
2019-04-27T22:37:53.180Z,1.20
2019-04-27T22:40:41.771Z,1.00
2019-04-27T22:43:31.587Z,1.40
2019-04-27T22:46:01.246Z,1.00
2019-04-27T22:48:31.423Z,0.70
2019-04-27T22:50:58.437Z,1.10
2019-04-27T22:53:25.775Z,1.07
2019-04-27T22:59:11.519Z,1.37
2019-04-27T23:04:47.663Z,0.83
2019-04-27T23:07:17.787Z,1.00
2019-04-27T23:09:45.377Z,1.00
2019-04-27T23:12:32.423Z,1.83
2019-04-27T23:14:59.775Z,0.90
2019-04-27T23:17:47.494Z,1.30
2019-04-27T23:20:14.878Z,1.07
2019-04-27T23:22:42.569Z,0.93
2019-04-27T23:25:11.264Z,0.73
2019-04-27T23:27:59.110Z,0.90
2019-04-27T23:30:37.028Z,0.70
2019-04-27T23:33:23.736Z,0.80
2019-04-27T23:38:57.551Z,0.90
2019-04-27T23:41:25.061Z,0.80
2019-04-27T23:43:52.662Z,1.07
2019-04-27T23:46:21.471Z,1.10
2019-04-27T23:48:51.300Z,0.80
2019-04-27T23:51:34.849Z,1.10
2019-04-27T23:54:02.263Z,1.07
2019-04-27T23:56:31.704Z,1.17
2019-04-27T23:58:59.874Z,1.17
